sensor_id;sensor_type;location;lat;lon;timestamp;P1;durP1;ratioP1;P2;durP2;ratioP2
17197;SDS011;8715;51.010;6.812;2022-11-20T00:02:08;238.47;;;225.00;;
17197;SDS011;8715;51.010;6.812;2022-11-20T00:04:34;219.27;;;207.73;;
17197;SDS011;8715;51.010;6.812;2022-11-20T00:06:59;225.23;;;212.37;;
17197;SDS011;8715;51.010;6.812;2022-11-20T00:09:25;238.05;;;225.30;;
17197;SDS011;8715;51.010;6.812;2022-11-20T00:11:50;225.33;;;213.40;;
17197;SDS011;8715;51.010;6.812;2022-11-20T00:14:15;247.77;;;234.70;;
17197;SDS011;8715;51.010;6.812;2022-11-20T00:16:41;219.73;;;207.20;;
17197;SDS011;8715;51.010;6.812;2022-11-20T00:19:07;230.25;;;217.15;;
17197;SDS011;8715;51.010;6.812;2022-11-20T00:21:32;231.43;;;219.23;;
17197;SDS011;8715;51.010;6.812;2022-11-20T00:23:57;215.13;;;202.97;;
17197;SDS011;8715;51.010;6.812;2022-11-20T00:26:23;233.77;;;221.52;;
17197;SDS011;8715;51.010;6.812;2022-11-20T00:28:54;244.07;;;230.80;;
17197;SDS011;8715;51.010;6.812;2022-11-20T00:31:20;240.38;;;227.10;;
17197;SDS011;8715;51.010;6.812;2022-11-20T00:33:46;231.32;;;218.98;;
17197;SDS011;8715;51.010;6.812;2022-11-20T00:36:13;224.70;;;212.32;;
17197;SDS011;8715;51.010;6.812;2022-11-20T00:38:39;221.30;;;209.25;;
17197;SDS011;8715;51.010;6.812;2022-11-20T00:41:05;231.90;;;218.53;;
17197;SDS011;8715;51.010;6.812;2022-11-20T00:43:33;223.65;;;210.98;;
17197;SDS011;8715;51.010;6.812;2022-11-20T00:45:59;237.15;;;224.27;;
17197;SDS011;8715;51.010;6.812;2022-11-20T00:48:25;227.00;;;213.73;;
17197;SDS011;8715;51.010;6.812;2022-11-20T00:50:51;224.18;;;211.20;;
17197;SDS011;8715;51.010;6.812;2022-11-20T00:53:16;227.32;;;214.93;;
17197;SDS011;8715;51.010;6.812;2022-11-20T00:55:41;217.83;;;206.07;;
17197;SDS011;8715;51.010;6.812;2022-11-20T00:58:07;221.50;;;209.43;;
17197;SDS011;8715;51.010;6.812;2022-11-20T01:00:32;225.30;;;212.73;;
17197;SDS011;8715;51.010;6.812;2022-11-20T01:02:57;240.10;;;226.93;;
17197;SDS011;8715;51.010;6.812;2022-11-20T01:05:23;237.67;;;223.73;;
17197;SDS011;8715;51.010;6.812;2022-11-20T01:07:48;219.43;;;207.03;;
17197;SDS011;8715;51.010;6.812;2022-11-20T01:10:13;225.93;;;210.87;;
17197;SDS011;8715;51.010;6.812;2022-11-20T01:12:39;223.73;;;211.23;;
17197;SDS011;8715;51.010;6.812;2022-11-20T01:15:04;229.53;;;217.27;;
17197;SDS011;8715;51.010;6.812;2022-11-20T01:17:30;222.43;;;209.90;;
17197;SDS011;8715;51.010;6.812;2022-11-20T01:19:56;224.75;;;212.63;;
17197;SDS011;8715;51.010;6.812;2022-11-20T01:22:21;230.43;;;218.50;;
17197;SDS011;8715;51.010;6.812;2022-11-20T01:24:46;235.50;;;223.13;;
17197;SDS011;8715;51.010;6.812;2022-11-20T01:27:12;225.73;;;212.98;;
17197;SDS011;8715;51.010;6.812;2022-11-20T01:29:37;222.23;;;209.98;;
17197;SDS011;8715;51.010;6.812;2022-11-20T01:32:02;223.07;;;211.25;;
17197;SDS011;8715;51.010;6.812;2022-11-20T01:34:28;238.60;;;225.05;;
17197;SDS011;8715;51.010;6.812;2022-11-20T01:36:53;229.02;;;216.48;;
17197;SDS011;8715;51.010;6.812;2022-11-20T01:39:20;244.63;;;230.93;;
17197;SDS011;8715;51.010;6.812;2022-11-20T01:41:47;237.02;;;224.80;;
17197;SDS011;8715;51.010;6.812;2022-11-20T01:47:14;243.93;;;230.60;;
17197;SDS011;8715;51.010;6.812;2022-11-20T01:52:51;257.13;;;243.35;;
17197;SDS011;8715;51.010;6.812;2022-11-20T01:55:22;244.07;;;229.38;;
17197;SDS011;8715;51.010;6.812;2022-11-20T01:57:50;223.45;;;210.98;;
17197;SDS011;8715;51.010;6.812;2022-11-20T02:00:17;235.90;;;220.98;;
17197;SDS011;8715;51.010;6.812;2022-11-20T02:02:48;255.80;;;242.55;;
17197;SDS011;8715;51.010;6.812;2022-11-20T02:07:57;233.82;;;219.52;;
17197;SDS011;8715;51.010;6.812;2022-11-20T02:10:24;231.10;;;218.60;;
17197;SDS011;8715;51.010;6.812;2022-11-20T02:12:49;244.52;;;230.32;;
17197;SDS011;8715;51.010;6.812;2022-11-20T02:15:33;232.10;;;218.13;;
17197;SDS011;8715;51.010;6.812;2022-11-20T02:17:58;237.05;;;223.68;;
17197;SDS011;8715;51.010;6.812;2022-11-20T02:20:24;225.20;;;213.05;;
17197;SDS011;8715;51.010;6.812;2022-11-20T02:22:52;219.70;;;206.60;;
17197;SDS011;8715;51.010;6.812;2022-11-20T02:25:28;243.63;;;229.45;;
17197;SDS011;8715;51.010;6.812;2022-11-20T02:27:56;225.95;;;212.77;;
17197;SDS011;8715;51.010;6.812;2022-11-20T02:30:21;220.70;;;208.43;;
17197;SDS011;8715;51.010;6.812;2022-11-20T02:32:46;232.40;;;219.47;;
17197;SDS011;8715;51.010;6.812;2022-11-20T02:37:43;218.65;;;206.18;;
17197;SDS011;8715;51.010;6.812;2022-11-20T02:40:10;246.65;;;231.15;;
17197;SDS011;8715;51.010;6.812;2022-11-20T02:42:36;227.45;;;214.95;;
17197;SDS011;8715;51.010;6.812;2022-11-20T02:45:02;230.98;;;218.65;;
17197;SDS011;8715;51.010;6.812;2022-11-20T02:47:28;245.18;;;232.00;;
17197;SDS011;8715;51.010;6.812;2022-11-20T02:49:53;230.50;;;217.30;;
17197;SDS011;8715;51.010;6.812;2022-11-20T02:52:19;222.73;;;211.10;;
17197;SDS011;8715;51.010;6.812;2022-11-20T02:54:44;240.63;;;227.33;;
17197;SDS011;8715;51.010;6.812;2022-11-20T02:57:09;226.23;;;214.33;;
17197;SDS011;8715;51.010;6.812;2022-11-20T02:59:35;230.30;;;217.60;;
17197;SDS011;8715;51.010;6.812;2022-11-20T03:02:00;218.10;;;205.93;;
17197;SDS011;8715;51.010;6.812;2022-11-20T03:04:25;245.30;;;232.37;;
17197;SDS011;8715;51.010;6.812;2022-11-20T03:06:51;225.77;;;213.63;;
17197;SDS011;8715;51.010;6.812;2022-11-20T03:09:16;238.70;;;225.57;;
17197;SDS011;8715;51.010;6.812;2022-11-20T03:11:41;238.40;;;225.20;;
17197;SDS011;8715;51.010;6.812;2022-11-20T03:14:06;234.03;;;221.03;;
17197;SDS011;8715;51.010;6.812;2022-11-20T03:16:32;250.75;;;237.98;;
17197;SDS011;8715;51.010;6.812;2022-11-20T03:18:57;252.55;;;238.38;;
17197;SDS011;8715;51.010;6.812;2022-11-20T03:21:23;254.30;;;240.67;;
17197;SDS011;8715;51.010;6.812;2022-11-20T03:23:48;244.73;;;231.47;;
17197;SDS011;8715;51.010;6.812;2022-11-20T03:26:18;253.77;;;240.02;;
17197;SDS011;8715;51.010;6.812;2022-11-20T03:28:49;242.88;;;229.82;;
17197;SDS011;8715;51.010;6.812;2022-11-20T03:31:20;237.45;;;225.05;;
17197;SDS011;8715;51.010;6.812;2022-11-20T03:33:47;231.38;;;218.68;;
17197;SDS011;8715;51.010;6.812;2022-11-20T03:36:12;253.73;;;240.07;;
17197;SDS011;8715;51.010;6.812;2022-11-20T03:38:39;232.57;;;220.02;;
17197;SDS011;8715;51.010;6.812;2022-11-20T03:41:06;241.70;;;229.20;;
17197;SDS011;8715;51.010;6.812;2022-11-20T03:43:35;233.48;;;220.93;;
17197;SDS011;8715;51.010;6.812;2022-11-20T03:46:01;240.48;;;227.25;;
17197;SDS011;8715;51.010;6.812;2022-11-20T03:48:27;288.70;;;273.98;;
17197;SDS011;8715;51.010;6.812;2022-11-20T03:50:53;222.90;;;210.65;;
17197;SDS011;8715;51.010;6.812;2022-11-20T03:53:19;237.70;;;224.48;;
17197;SDS011;8715;51.010;6.812;2022-11-20T03:55:45;237.88;;;225.32;;
17197;SDS011;8715;51.010;6.812;2022-11-20T03:58:15;234.38;;;221.57;;
17197;SDS011;8715;51.010;6.812;2022-11-20T04:00:40;225.33;;;212.87;;
17197;SDS011;8715;51.010;6.812;2022-11-20T04:03:05;226.93;;;214.30;;
17197;SDS011;8715;51.010;6.812;2022-11-20T04:05:32;250.67;;;236.77;;
17197;SDS011;8715;51.010;6.812;2022-11-20T04:07:58;224.75;;;212.10;;
17197;SDS011;8715;51.010;6.812;2022-11-20T04:10:23;227.10;;;214.80;;
17197;SDS011;8715;51.010;6.812;2022-11-20T04:12:49;222.73;;;210.40;;
17197;SDS011;8715;51.010;6.812;2022-11-20T04:15:15;208.73;;;197.00;;
17197;SDS011;8715;51.010;6.812;2022-11-20T04:17:40;230.10;;;217.45;;
17197;SDS011;8715;51.010;6.812;2022-11-20T04:20:06;232.90;;;218.05;;
17197;SDS011;8715;51.010;6.812;2022-11-20T04:22:31;226.88;;;213.85;;
17197;SDS011;8715;51.010;6.812;2022-11-20T04:24:57;219.23;;;206.93;;
17197;SDS011;8715;51.010;6.812;2022-11-20T04:27:22;234.53;;;222.10;;
17197;SDS011;8715;51.010;6.812;2022-11-20T04:29:47;223.33;;;210.73;;
17197;SDS011;8715;51.010;6.812;2022-11-20T04:32:12;219.13;;;206.93;;
17197;SDS011;8715;51.010;6.812;2022-11-20T04:34:38;217.60;;;205.87;;
17197;SDS011;8715;51.010;6.812;2022-11-20T04:37:03;240.63;;;227.53;;
17197;SDS011;8715;51.010;6.812;2022-11-20T04:39:28;216.67;;;204.70;;
17197;SDS011;8715;51.010;6.812;2022-11-20T04:41:54;218.65;;;206.60;;
17197;SDS011;8715;51.010;6.812;2022-11-20T04:44:39;224.63;;;211.85;;
17197;SDS011;8715;51.010;6.812;2022-11-20T04:47:04;239.63;;;226.73;;
17197;SDS011;8715;51.010;6.812;2022-11-20T04:49:30;225.57;;;212.98;;
17197;SDS011;8715;51.010;6.812;2022-11-20T04:51:56;219.90;;;207.90;;
17197;SDS011;8715;51.010;6.812;2022-11-20T04:54:22;232.02;;;219.85;;
17197;SDS011;8715;51.010;6.812;2022-11-20T04:56:47;237.50;;;224.87;;
17197;SDS011;8715;51.010;6.812;2022-11-20T04:59:13;223.98;;;212.07;;
17197;SDS011;8715;51.010;6.812;2022-11-20T05:01:38;225.77;;;213.10;;
17197;SDS011;8715;51.010;6.812;2022-11-20T05:04:03;244.40;;;231.13;;
17197;SDS011;8715;51.010;6.812;2022-11-20T05:06:29;240.25;;;226.45;;
17197;SDS011;8715;51.010;6.812;2022-11-20T05:08:54;227.10;;;214.33;;
17197;SDS011;8715;51.010;6.812;2022-11-20T05:11:20;254.37;;;239.77;;
17197;SDS011;8715;51.010;6.812;2022-11-20T05:13:45;247.45;;;234.35;;
17197;SDS011;8715;51.010;6.812;2022-11-20T05:16:15;254.40;;;240.63;;
17197;SDS011;8715;51.010;6.812;2022-11-20T05:18:44;241.82;;;228.80;;
17197;SDS011;8715;51.010;6.812;2022-11-20T05:21:10;253.93;;;239.68;;
17197;SDS011;8715;51.010;6.812;2022-11-20T05:23:36;253.80;;;235.38;;
17197;SDS011;8715;51.010;6.812;2022-11-20T05:26:03;256.73;;;242.65;;
17197;SDS011;8715;51.010;6.812;2022-11-20T05:28:30;255.48;;;241.60;;
17197;SDS011;8715;51.010;6.812;2022-11-20T05:30:56;230.43;;;216.77;;
17197;SDS011;8715;51.010;6.812;2022-11-20T05:33:21;239.90;;;226.60;;
17197;SDS011;8715;51.010;6.812;2022-11-20T05:35:47;236.48;;;223.80;;
17197;SDS011;8715;51.010;6.812;2022-11-20T05:38:13;245.55;;;231.77;;
17197;SDS011;8715;51.010;6.812;2022-11-20T05:40:39;241.60;;;228.23;;
17197;SDS011;8715;51.010;6.812;2022-11-20T05:43:04;228.53;;;215.70;;
17197;SDS011;8715;51.010;6.812;2022-11-20T05:45:29;251.03;;;237.70;;
17197;SDS011;8715;51.010;6.812;2022-11-20T05:47:57;258.23;;;244.03;;
17197;SDS011;8715;51.010;6.812;2022-11-20T05:50:24;228.52;;;216.10;;
17197;SDS011;8715;51.010;6.812;2022-11-20T05:52:49;252.68;;;239.00;;
17197;SDS011;8715;51.010;6.812;2022-11-20T05:55:15;246.10;;;233.07;;
17197;SDS011;8715;51.010;6.812;2022-11-20T05:57:40;282.58;;;268.00;;
17197;SDS011;8715;51.010;6.812;2022-11-20T06:00:05;252.73;;;236.63;;
17197;SDS011;8715;51.010;6.812;2022-11-20T06:02:34;265.40;;;250.98;;
17197;SDS011;8715;51.010;6.812;2022-11-20T06:04:59;250.18;;;236.13;;
17197;SDS011;8715;51.010;6.812;2022-11-20T06:07:25;234.93;;;221.23;;
17197;SDS011;8715;51.010;6.812;2022-11-20T06:09:50;249.57;;;235.73;;
17197;SDS011;8715;51.010;6.812;2022-11-20T06:12:15;250.07;;;236.53;;
17197;SDS011;8715;51.010;6.812;2022-11-20T06:14:41;263.35;;;249.55;;
17197;SDS011;8715;51.010;6.812;2022-11-20T06:17:06;231.07;;;218.47;;
17197;SDS011;8715;51.010;6.812;2022-11-20T06:19:31;237.13;;;223.63;;
17197;SDS011;8715;51.010;6.812;2022-11-20T06:21:57;243.20;;;229.67;;
17197;SDS011;8715;51.010;6.812;2022-11-20T06:24:22;246.13;;;232.20;;
17197;SDS011;8715;51.010;6.812;2022-11-20T06:26:47;247.25;;;233.90;;
17197;SDS011;8715;51.010;6.812;2022-11-20T06:29:13;249.65;;;235.00;;
17197;SDS011;8715;51.010;6.812;2022-11-20T06:31:38;279.88;;;265.08;;
17197;SDS011;8715;51.010;6.812;2022-11-20T06:34:04;219.98;;;208.05;;
17197;SDS011;8715;51.010;6.812;2022-11-20T06:36:31;246.18;;;232.57;;
17197;SDS011;8715;51.010;6.812;2022-11-20T06:38:56;228.00;;;214.50;;
17197;SDS011;8715;51.010;6.812;2022-11-20T06:41:21;226.93;;;214.17;;
17197;SDS011;8715;51.010;6.812;2022-11-20T06:43:47;220.10;;;207.73;;
17197;SDS011;8715;51.010;6.812;2022-11-20T06:46:13;215.40;;;203.38;;
17197;SDS011;8715;51.010;6.812;2022-11-20T06:48:39;238.80;;;225.60;;
17197;SDS011;8715;51.010;6.812;2022-11-20T06:51:05;228.02;;;215.55;;
17197;SDS011;8715;51.010;6.812;2022-11-20T06:53:31;225.18;;;212.80;;
17197;SDS011;8715;51.010;6.812;2022-11-20T06:55:56;225.02;;;211.65;;
17197;SDS011;8715;51.010;6.812;2022-11-20T06:58:23;221.02;;;208.18;;
17197;SDS011;8715;51.010;6.812;2022-11-20T07:00:48;227.50;;;214.35;;
17197;SDS011;8715;51.010;6.812;2022-11-20T07:03:13;218.13;;;205.30;;
17197;SDS011;8715;51.010;6.812;2022-11-20T07:05:39;213.88;;;201.63;;
17197;SDS011;8715;51.010;6.812;2022-11-20T07:08:05;216.82;;;203.95;;
17197;SDS011;8715;51.010;6.812;2022-11-20T07:10:30;219.32;;;206.63;;
17197;SDS011;8715;51.010;6.812;2022-11-20T07:12:56;230.38;;;217.48;;
17197;SDS011;8715;51.010;6.812;2022-11-20T07:15:22;216.13;;;203.73;;
17197;SDS011;8715;51.010;6.812;2022-11-20T07:17:48;230.40;;;217.95;;
17197;SDS011;8715;51.010;6.812;2022-11-20T07:20:14;229.05;;;214.23;;
17197;SDS011;8715;51.010;6.812;2022-11-20T07:22:39;224.45;;;211.85;;
17197;SDS011;8715;51.010;6.812;2022-11-20T07:25:05;223.82;;;211.23;;
17197;SDS011;8715;51.010;6.812;2022-11-20T07:27:31;211.50;;;199.52;;
17197;SDS011;8715;51.010;6.812;2022-11-20T07:29:56;220.27;;;207.18;;
17197;SDS011;8715;51.010;6.812;2022-11-20T07:32:22;239.02;;;225.95;;
17197;SDS011;8715;51.010;6.812;2022-11-20T07:34:47;228.10;;;214.60;;
17197;SDS011;8715;51.010;6.812;2022-11-20T07:37:13;224.65;;;212.00;;
17197;SDS011;8715;51.010;6.812;2022-11-20T07:39:38;230.45;;;217.77;;
17197;SDS011;8715;51.010;6.812;2022-11-20T07:42:05;248.73;;;235.10;;
17197;SDS011;8715;51.010;6.812;2022-11-20T07:44:31;228.38;;;215.60;;
17197;SDS011;8715;51.010;6.812;2022-11-20T07:46:56;232.40;;;219.50;;
17197;SDS011;8715;51.010;6.812;2022-11-20T07:49:21;255.00;;;242.18;;
17197;SDS011;8715;51.010;6.812;2022-11-20T07:51:47;249.90;;;236.10;;
17197;SDS011;8715;51.010;6.812;2022-11-20T07:54:15;292.63;;;277.77;;
17197;SDS011;8715;51.010;6.812;2022-11-20T07:56:40;234.17;;;221.03;;
17197;SDS011;8715;51.010;6.812;2022-11-20T07:59:05;255.95;;;242.38;;
17197;SDS011;8715;51.010;6.812;2022-11-20T08:01:31;260.75;;;246.93;;
17197;SDS011;8715;51.010;6.812;2022-11-20T08:03:56;231.00;;;218.23;;
17197;SDS011;8715;51.010;6.812;2022-11-20T08:06:21;247.03;;;233.07;;
17197;SDS011;8715;51.010;6.812;2022-11-20T08:08:47;251.38;;;237.30;;
17197;SDS011;8715;51.010;6.812;2022-11-20T08:11:12;247.93;;;234.53;;
17197;SDS011;8715;51.010;6.812;2022-11-20T08:13:56;254.80;;;240.00;;
17197;SDS011;8715;51.010;6.812;2022-11-20T08:16:36;244.05;;;231.10;;
17197;SDS011;8715;51.010;6.812;2022-11-20T08:19:02;262.50;;;248.48;;
17197;SDS011;8715;51.010;6.812;2022-11-20T08:21:27;249.03;;;235.13;;
17197;SDS011;8715;51.010;6.812;2022-11-20T08:23:52;256.97;;;243.20;;
17197;SDS011;8715;51.010;6.812;2022-11-20T08:26:18;260.50;;;246.03;;
17197;SDS011;8715;51.010;6.812;2022-11-20T08:28:43;260.57;;;246.87;;
17197;SDS011;8715;51.010;6.812;2022-11-20T08:31:09;279.63;;;264.65;;
17197;SDS011;8715;51.010;6.812;2022-11-20T08:33:34;275.27;;;260.17;;
17197;SDS011;8715;51.010;6.812;2022-11-20T08:36:00;264.75;;;250.48;;
17197;SDS011;8715;51.010;6.812;2022-11-20T08:38:29;245.80;;;231.82;;
17197;SDS011;8715;51.010;6.812;2022-11-20T08:40:58;264.58;;;247.43;;
17197;SDS011;8715;51.010;6.812;2022-11-20T08:43:42;270.80;;;256.63;;
17197;SDS011;8715;51.010;6.812;2022-11-20T08:46:07;276.63;;;263.23;;
17197;SDS011;8715;51.010;6.812;2022-11-20T08:48:33;269.77;;;256.40;;
17197;SDS011;8715;51.010;6.812;2022-11-20T08:50:58;266.87;;;252.40;;
17197;SDS011;8715;51.010;6.812;2022-11-20T08:53:24;267.58;;;253.93;;
17197;SDS011;8715;51.010;6.812;2022-11-20T08:55:49;289.52;;;274.60;;
17197;SDS011;8715;51.010;6.812;2022-11-20T08:58:15;276.48;;;261.80;;
17197;SDS011;8715;51.010;6.812;2022-11-20T09:00:40;297.03;;;281.93;;
17197;SDS011;8715;51.010;6.812;2022-11-20T09:03:05;282.37;;;267.97;;
17197;SDS011;8715;51.010;6.812;2022-11-20T09:05:31;289.17;;;274.27;;
17197;SDS011;8715;51.010;6.812;2022-11-20T09:07:57;306.98;;;291.48;;
17197;SDS011;8715;51.010;6.812;2022-11-20T09:10:22;291.40;;;276.52;;
17197;SDS011;8715;51.010;6.812;2022-11-20T09:12:48;295.73;;;281.50;;
17197;SDS011;8715;51.010;6.812;2022-11-20T09:15:14;301.20;;;286.92;;
17197;SDS011;8715;51.010;6.812;2022-11-20T09:17:39;294.17;;;280.17;;
17197;SDS011;8715;51.010;6.812;2022-11-20T09:20:04;306.80;;;290.27;;
17197;SDS011;8715;51.010;6.812;2022-11-20T09:22:30;293.15;;;278.52;;
17197;SDS011;8715;51.010;6.812;2022-11-20T09:24:55;279.20;;;265.07;;
17197;SDS011;8715;51.010;6.812;2022-11-20T09:27:20;289.63;;;275.05;;
17197;SDS011;8715;51.010;6.812;2022-11-20T09:29:46;299.83;;;284.58;;
17197;SDS011;8715;51.010;6.812;2022-11-20T09:32:11;285.80;;;271.67;;
17197;SDS011;8715;51.010;6.812;2022-11-20T09:34:37;294.63;;;279.73;;
17197;SDS011;8715;51.010;6.812;2022-11-20T09:37:02;283.87;;;269.17;;
17197;SDS011;8715;51.010;6.812;2022-11-20T09:39:27;305.13;;;289.83;;
17197;SDS011;8715;51.010;6.812;2022-11-20T09:41:59;290.37;;;275.37;;
17197;SDS011;8715;51.010;6.812;2022-11-20T09:45:03;276.80;;;262.08;;
17197;SDS011;8715;51.010;6.812;2022-11-20T09:47:33;299.63;;;284.73;;
17197;SDS011;8715;51.010;6.812;2022-11-20T09:50:10;288.27;;;272.33;;
17197;SDS011;8715;51.010;6.812;2022-11-20T09:55:30;292.65;;;276.83;;
17197;SDS011;8715;51.010;6.812;2022-11-20T09:57:56;293.08;;;277.63;;
17197;SDS011;8715;51.010;6.812;2022-11-20T10:00:22;315.27;;;298.92;;
17197;SDS011;8715;51.010;6.812;2022-11-20T10:05:45;314.85;;;298.50;;
17197;SDS011;8715;51.010;6.812;2022-11-20T10:10:49;311.75;;;295.48;;
17197;SDS011;8715;51.010;6.812;2022-11-20T10:27:40;315.63;;;299.05;;
17197;SDS011;8715;51.010;6.812;2022-11-20T10:30:09;312.20;;;293.80;;
17197;SDS011;8715;51.010;6.812;2022-11-20T10:32:40;282.73;;;268.35;;
17197;SDS011;8715;51.010;6.812;2022-11-20T10:35:14;303.13;;;287.33;;
17197;SDS011;8715;51.010;6.812;2022-11-20T10:37:44;288.70;;;273.15;;
17197;SDS011;8715;51.010;6.812;2022-11-20T10:42:48;315.27;;;298.65;;
17197;SDS011;8715;51.010;6.812;2022-11-20T10:47:50;314.48;;;298.15;;
17197;SDS011;8715;51.010;6.812;2022-11-20T10:50:18;298.10;;;281.88;;
17197;SDS011;8715;51.010;6.812;2022-11-20T10:52:51;302.50;;;287.08;;
17197;SDS011;8715;51.010;6.812;2022-11-20T11:01:39;305.85;;;290.17;;
17197;SDS011;8715;51.010;6.812;2022-11-20T11:03:52;319.38;;;303.02;;
17197;SDS011;8715;51.010;6.812;2022-11-20T11:06:22;318.80;;;302.33;;
17197;SDS011;8715;51.010;6.812;2022-11-20T11:08:51;313.48;;;298.02;;
17197;SDS011;8715;51.010;6.812;2022-11-20T11:11:26;324.10;;;307.60;;
17197;SDS011;8715;51.010;6.812;2022-11-20T11:14:03;307.50;;;291.15;;
17197;SDS011;8715;51.010;6.812;2022-11-20T11:16:32;315.08;;;299.10;;
17197;SDS011;8715;51.010;6.812;2022-11-20T11:19:07;293.30;;;278.45;;
17197;SDS011;8715;51.010;6.812;2022-11-20T11:21:37;299.65;;;284.17;;
17197;SDS011;8715;51.010;6.812;2022-11-20T11:24:14;322.65;;;305.73;;
17197;SDS011;8715;51.010;6.812;2022-11-20T11:27:18;312.75;;;296.58;;
17197;SDS011;8715;51.010;6.812;2022-11-20T11:29:37;309.90;;;294.05;;
17197;SDS011;8715;51.010;6.812;2022-11-20T11:32:03;310.98;;;294.83;;
17197;SDS011;8715;51.010;6.812;2022-11-20T11:34:32;305.10;;;289.17;;
17197;SDS011;8715;51.010;6.812;2022-11-20T11:36:58;308.13;;;291.23;;
17197;SDS011;8715;51.010;6.812;2022-11-20T11:39:24;322.73;;;305.90;;
17197;SDS011;8715;51.010;6.812;2022-11-20T11:41:51;291.17;;;275.17;;
17197;SDS011;8715;51.010;6.812;2022-11-20T11:44:34;286.50;;;270.67;;
17197;SDS011;8715;51.010;6.812;2022-11-20T11:47:25;305.55;;;288.50;;
17197;SDS011;8715;51.010;6.812;2022-11-20T11:52:49;331.80;;;314.55;;
17197;SDS011;8715;51.010;6.812;2022-11-20T11:55:25;292.42;;;276.90;;
17197;SDS011;8715;51.010;6.812;2022-11-20T12:00:54;302.42;;;286.35;;
17197;SDS011;8715;51.010;6.812;2022-11-20T12:03:39;280.95;;;266.00;;
17197;SDS011;8715;51.010;6.812;2022-11-20T12:06:16;301.90;;;286.58;;
17197;SDS011;8715;51.010;6.812;2022-11-20T12:14:14;308.10;;;292.05;;
17197;SDS011;8715;51.010;6.812;2022-11-20T12:16:40;305.13;;;287.90;;
17197;SDS011;8715;51.010;6.812;2022-11-20T12:19:12;306.85;;;290.17;;
17197;SDS011;8715;51.010;6.812;2022-11-20T12:21:43;331.30;;;313.70;;
17197;SDS011;8715;51.010;6.812;2022-11-20T12:30:00;314.25;;;297.52;;
17197;SDS011;8715;51.010;6.812;2022-11-20T12:32:33;303.77;;;288.45;;
17197;SDS011;8715;51.010;6.812;2022-11-20T12:37:59;305.88;;;289.95;;
17197;SDS011;8715;51.010;6.812;2022-11-20T12:43:05;300.90;;;285.77;;
17197;SDS011;8715;51.010;6.812;2022-11-20T12:46:00;296.42;;;281.23;;
17197;SDS011;8715;51.010;6.812;2022-11-20T12:48:41;305.30;;;289.52;;
17197;SDS011;8715;51.010;6.812;2022-11-20T12:51:15;303.88;;;287.58;;
17197;SDS011;8715;51.010;6.812;2022-11-20T12:53:50;307.45;;;291.05;;
17197;SDS011;8715;51.010;6.812;2022-11-20T13:07:38;325.90;;;309.35;;
17197;SDS011;8715;51.010;6.812;2022-11-20T13:10:05;325.35;;;306.92;;
17197;SDS011;8715;51.010;6.812;2022-11-20T13:12:50;307.00;;;290.52;;
17197;SDS011;8715;51.010;6.812;2022-11-20T13:18:18;320.17;;;303.20;;
17197;SDS011;8715;51.010;6.812;2022-11-20T13:20:44;315.63;;;299.85;;
17197;SDS011;8715;51.010;6.812;2022-11-20T13:23:10;329.17;;;312.27;;
17197;SDS011;8715;51.010;6.812;2022-11-20T13:25:39;301.10;;;286.00;;
17197;SDS011;8715;51.010;6.812;2022-11-20T13:30:37;326.23;;;310.25;;
17197;SDS011;8715;51.010;6.812;2022-11-20T13:35:59;332.42;;;315.88;;
17197;SDS011;8715;51.010;6.812;2022-11-20T13:38:26;324.85;;;308.38;;
17197;SDS011;8715;51.010;6.812;2022-11-20T13:40:56;328.35;;;310.77;;
17197;SDS011;8715;51.010;6.812;2022-11-20T13:45:54;327.80;;;310.20;;
17197;SDS011;8715;51.010;6.812;2022-11-20T13:48:22;333.58;;;317.08;;
17197;SDS011;8715;51.010;6.812;2022-11-20T13:53:25;353.38;;;336.05;;
17197;SDS011;8715;51.010;6.812;2022-11-20T13:55:59;324.73;;;308.13;;
17197;SDS011;8715;51.010;6.812;2022-11-20T13:58:40;314.15;;;298.73;;
17197;SDS011;8715;51.010;6.812;2022-11-20T14:01:15;320.25;;;304.02;;
17197;SDS011;8715;51.010;6.812;2022-11-20T14:03:43;364.27;;;346.08;;
17197;SDS011;8715;51.010;6.812;2022-11-20T14:06:16;310.50;;;295.13;;
17197;SDS011;8715;51.010;6.812;2022-11-20T14:08:50;320.95;;;304.58;;
17197;SDS011;8715;51.010;6.812;2022-11-20T14:13:52;326.90;;;310.15;;
17197;SDS011;8715;51.010;6.812;2022-11-20T14:16:20;299.40;;;283.65;;
17197;SDS011;8715;51.010;6.812;2022-11-20T14:18:46;321.42;;;303.98;;
17197;SDS011;8715;51.010;6.812;2022-11-20T14:21:11;314.60;;;298.52;;
17197;SDS011;8715;51.010;6.812;2022-11-20T14:23:36;334.23;;;317.60;;
17197;SDS011;8715;51.010;6.812;2022-11-20T14:26:03;316.25;;;300.58;;
17197;SDS011;8715;51.010;6.812;2022-11-20T14:28:29;326.27;;;309.38;;
17197;SDS011;8715;51.010;6.812;2022-11-20T14:30:56;331.40;;;314.52;;
17197;SDS011;8715;51.010;6.812;2022-11-20T14:33:22;328.98;;;312.58;;
17197;SDS011;8715;51.010;6.812;2022-11-20T14:35:53;305.08;;;289.13;;
17197;SDS011;8715;51.010;6.812;2022-11-20T14:38:29;319.40;;;302.83;;
17197;SDS011;8715;51.010;6.812;2022-11-20T14:41:06;327.40;;;310.85;;
17197;SDS011;8715;51.010;6.812;2022-11-20T14:43:32;312.38;;;296.65;;
17197;SDS011;8715;51.010;6.812;2022-11-20T14:46:02;323.65;;;306.50;;
17197;SDS011;8715;51.010;6.812;2022-11-20T14:48:37;331.15;;;314.25;;
17197;SDS011;8715;51.010;6.812;2022-11-20T14:51:04;317.77;;;301.20;;
17197;SDS011;8715;51.010;6.812;2022-11-20T14:53:29;325.17;;;308.37;;
17197;SDS011;8715;51.010;6.812;2022-11-20T14:55:56;312.07;;;295.73;;
17197;SDS011;8715;51.010;6.812;2022-11-20T14:58:26;318.02;;;300.65;;
17197;SDS011;8715;51.010;6.812;2022-11-20T15:01:26;321.95;;;305.48;;
17197;SDS011;8715;51.010;6.812;2022-11-20T15:03:44;322.30;;;304.70;;
17197;SDS011;8715;51.010;6.812;2022-11-20T15:06:10;320.70;;;303.00;;
17197;SDS011;8715;51.010;6.812;2022-11-20T15:08:37;311.50;;;294.98;;
17197;SDS011;8715;51.010;6.812;2022-11-20T15:11:02;314.60;;;297.55;;
17197;SDS011;8715;51.010;6.812;2022-11-20T15:13:30;324.98;;;308.10;;
17197;SDS011;8715;51.010;6.812;2022-11-20T15:15:57;311.63;;;295.60;;
17197;SDS011;8715;51.010;6.812;2022-11-20T15:21:02;329.40;;;310.73;;
17197;SDS011;8715;51.010;6.812;2022-11-20T15:23:28;315.27;;;296.13;;
17197;SDS011;8715;51.010;6.812;2022-11-20T15:25:54;310.52;;;293.85;;
17197;SDS011;8715;51.010;6.812;2022-11-20T15:28:20;317.30;;;300.73;;
17197;SDS011;8715;51.010;6.812;2022-11-20T15:30:48;321.50;;;304.83;;
17197;SDS011;8715;51.010;6.812;2022-11-20T15:33:14;328.05;;;310.98;;
17197;SDS011;8715;51.010;6.812;2022-11-20T15:35:40;310.17;;;293.65;;
17197;SDS011;8715;51.010;6.812;2022-11-20T15:38:06;323.98;;;307.63;;
17197;SDS011;8715;51.010;6.812;2022-11-20T15:40:31;309.40;;;293.38;;
17197;SDS011;8715;51.010;6.812;2022-11-20T15:42:56;323.67;;;306.17;;
17197;SDS011;8715;51.010;6.812;2022-11-20T15:45:28;302.60;;;286.70;;
17197;SDS011;8715;51.010;6.812;2022-11-20T15:47:56;300.98;;;285.50;;
17197;SDS011;8715;51.010;6.812;2022-11-20T15:50:23;313.45;;;297.63;;